Accueil
METAR-TAF:

METAR-TAF

Aéroports :

Aéroport de Reus

Reus, Espagne

latitude: 41-09N, longitude: 001-10E, altitude: 71 m

Observation

Le bulletin a été fait il y a 34 minutes, à 22:00 UTC
Vent calme
Température 12°C
Humidité 100%
Pression 1026 hPa
Visibilité 10 km ou plus

METAR: LERS 062200Z AUTO 00000KT 9999 ////// 12/12 Q1026

Heure: 00:34 (22:34 UTC)

Prévision

Le bulletin a été fait il y a 2 heures et 34 minutes, à 20:00 UTC
Prévision valable du 06 à 21 UTC au 07 à 21 UTC
Vent 3 kt de direction variable
Visibilité 10 km ou plus
Quelques nuages à une hauteur de 2000 ft
Evoluant progressivement
du 07 à 08 UTC au 07 à 10 UTC
Vent 8 kt de sud-est

TAF: LERS 062000Z 0621/0721 VRB03KT 9999 FEW020 TX17/0712Z TN10/0706Z BECMG 0708/0710 13008KT

Observations et prévisions météorologiques de plus de 4000 aéroports (messages METAR et TAF).

Les stations disponibles sont représentées par des disques jaunes et rouges sur la carte.

Passer la souris dessus pour voir le nom de la station.

Cliquer dessus pour voir les observations et prévisions météorologiques.

Pour changer de carte: cliquez sur les boutons verts avec une croix noire pour zoomer, sur le bouton vert avec un tiret pour effectuer un zoom arrière, ou sur les flèches vertes pour les cartes adjacentes.


METAR-TAF: